createdAt,value
2024-02-09T00:00:42.663Z,927.45
2024-02-09T00:01:42.052Z,927.51
2024-02-09T00:02:42.215Z,927.51
2024-02-09T00:03:41.956Z,927.53
2024-02-09T00:04:42.013Z,927.56
2024-02-09T00:05:42.548Z,927.58
2024-02-09T00:06:41.977Z,927.57
2024-02-09T00:07:42.108Z,927.64
2024-02-09T00:08:42.186Z,927.62
2024-02-09T00:09:41.945Z,927.63
2024-02-09T00:10:42.075Z,927.65
2024-02-09T00:11:42.680Z,927.68
2024-02-09T00:12:41.870Z,927.61
2024-02-09T00:13:41.891Z,927.64
2024-02-09T00:14:41.880Z,927.67
2024-02-09T00:15:41.945Z,927.71
2024-02-09T00:16:42.018Z,927.71
2024-02-09T00:17:42.128Z,927.70
2024-02-09T00:18:42.172Z,927.70
2024-02-09T00:19:41.946Z,927.67
2024-02-09T00:20:41.815Z,927.64
2024-02-09T00:21:41.954Z,927.61
2024-02-09T00:22:41.994Z,927.59
2024-02-09T00:23:41.952Z,927.57
2024-02-09T00:24:41.787Z,927.56
2024-02-09T00:25:41.819Z,927.57
2024-02-09T00:26:41.813Z,927.57
2024-02-09T00:27:41.767Z,927.57
2024-02-09T00:28:41.803Z,927.59
2024-02-09T00:29:41.894Z,927.59
2024-02-09T00:30:41.676Z,927.61
2024-02-09T00:31:41.879Z,927.63
2024-02-09T00:32:41.805Z,927.63
2024-02-09T00:33:41.734Z,927.62
2024-02-09T00:34:41.947Z,927.64
2024-02-09T00:35:41.754Z,927.63
2024-02-09T00:36:41.787Z,927.63
2024-02-09T00:37:41.728Z,927.64
2024-02-09T00:38:41.681Z,927.64
2024-02-09T00:39:41.673Z,927.61
2024-02-09T00:40:43.069Z,927.63
2024-02-09T00:41:41.675Z,927.64
2024-02-09T00:42:41.554Z,927.61
2024-02-09T00:43:41.734Z,927.62
2024-02-09T00:44:41.617Z,927.63
2024-02-09T00:45:41.511Z,927.61
2024-02-09T00:46:41.748Z,927.62
2024-02-09T00:47:41.592Z,927.59
2024-02-09T00:48:41.531Z,927.57
2024-02-09T00:49:42.480Z,927.58
2024-02-09T00:50:41.457Z,927.58
2024-02-09T00:51:41.623Z,927.60
2024-02-09T00:52:41.714Z,927.63
2024-02-09T00:53:41.463Z,927.64
2024-02-09T00:54:41.382Z,927.65
2024-02-09T00:55:41.514Z,927.69
2024-02-09T00:56:41.451Z,927.63
2024-02-09T00:57:41.497Z,927.61
2024-02-09T00:58:41.538Z,927.58
2024-02-09T00:59:41.417Z,927.57
2024-02-09T01:00:41.639Z,927.57
2024-02-09T01:01:50.398Z,927.55
2024-02-09T01:02:41.366Z,927.56
2024-02-09T01:03:41.317Z,927.56
2024-02-09T01:04:41.778Z,927.58
2024-02-09T01:05:41.642Z,927.57
2024-02-09T01:06:41.378Z,927.60
2024-02-09T01:07:41.393Z,927.64
2024-02-09T01:08:41.299Z,927.64
2024-02-09T01:09:41.359Z,927.65
2024-02-09T01:10:41.355Z,927.65
2024-02-09T01:11:41.368Z,927.66
2024-02-09T01:12:41.273Z,927.69
2024-02-09T01:13:41.241Z,927.70
2024-02-09T01:14:41.187Z,927.68
2024-02-09T01:15:41.211Z,927.67
2024-02-09T01:16:41.310Z,927.73
2024-02-09T01:17:41.525Z,927.75
2024-02-09T01:18:41.187Z,927.80
2024-02-09T01:19:41.291Z,927.78
2024-02-09T01:20:41.338Z,927.79
2024-02-09T01:21:41.133Z,927.82
2024-02-09T01:22:41.185Z,927.84
2024-02-09T01:23:41.243Z,927.87
2024-02-09T01:24:41.069Z,927.86
2024-02-09T01:25:41.222Z,927.90
2024-02-09T01:26:41.441Z,927.88
2024-02-09T01:27:41.132Z,927.91
2024-02-09T01:28:41.147Z,927.91
2024-02-09T01:29:41.196Z,927.90
2024-02-09T01:30:41.011Z,927.88
2024-02-09T01:31:41.112Z,927.86
2024-02-09T01:32:41.179Z,927.87
2024-02-09T01:33:41.058Z,927.86
2024-02-09T01:34:41.165Z,927.85
2024-02-09T01:35:41.545Z,927.85
2024-02-09T01:36:41.134Z,927.85
2024-02-09T01:37:40.986Z,927.81
2024-02-09T01:38:40.990Z,927.80
2024-02-09T01:39:40.959Z,927.80
2024-02-09T01:40:41.008Z,927.79
2024-02-09T01:41:41.016Z,927.78
2024-02-09T01:42:40.885Z,927.80
2024-02-09T01:43:40.983Z,927.81
2024-02-09T01:44:40.907Z,927.85
2024-02-09T01:45:41.016Z,927.86
2024-02-09T01:46:41.020Z,927.88
2024-02-09T01:47:40.980Z,927.90
2024-02-09T01:48:40.918Z,927.90
2024-02-09T01:49:40.926Z,927.91
2024-02-09T01:50:40.908Z,927.90
2024-02-09T01:51:40.991Z,927.86
2024-02-09T01:52:40.892Z,927.85
2024-02-09T01:53:40.892Z,927.84
2024-02-09T01:54:40.868Z,927.81
2024-02-09T01:55:40.757Z,927.79
2024-02-09T01:56:40.919Z,927.76
2024-02-09T01:57:40.887Z,927.75
2024-02-09T01:58:40.924Z,927.74
2024-02-09T01:59:40.691Z,927.73
2024-02-09T02:00:40.740Z,927.71
2024-02-09T02:01:40.774Z,927.71
2024-02-09T02:02:40.798Z,927.69
2024-02-09T02:03:40.749Z,927.68
2024-02-09T02:04:40.871Z,927.67
2024-02-09T02:05:40.685Z,927.68
2024-02-09T02:06:40.721Z,927.68
2024-02-09T02:07:40.731Z,927.69
2024-02-09T02:08:40.862Z,927.69
2024-02-09T02:09:40.665Z,927.71
2024-02-09T02:10:40.788Z,927.73
2024-02-09T02:11:40.572Z,927.76
2024-02-09T02:12:40.577Z,927.79
2024-02-09T02:13:40.629Z,927.81
2024-02-09T02:14:41.030Z,927.83
2024-02-09T02:15:40.798Z,927.85
2024-02-09T02:16:40.593Z,927.85
2024-02-09T02:17:40.558Z,927.87
2024-02-09T02:18:40.608Z,927.88
2024-02-09T02:19:40.588Z,927.88
2024-02-09T02:20:40.565Z,927.90
2024-02-09T02:21:41.234Z,927.91
2024-02-09T02:22:40.567Z,927.92
2024-02-09T02:23:40.477Z,927.92
2024-02-09T02:24:40.764Z,927.94
2024-02-09T02:25:40.599Z,927.94
2024-02-09T02:26:40.464Z,927.94
2024-02-09T02:27:41.391Z,927.96
2024-02-09T02:28:40.560Z,927.96
2024-02-09T02:29:40.414Z,927.95
2024-02-09T02:30:40.419Z,927.94
2024-02-09T02:31:40.533Z,927.95
2024-02-09T02:32:40.522Z,927.96
2024-02-09T02:33:40.688Z,927.95
2024-02-09T02:34:40.352Z,927.94
2024-02-09T02:35:40.625Z,927.94
2024-02-09T02:36:40.359Z,927.94
2024-02-09T02:37:40.432Z,927.93
2024-02-09T02:38:40.334Z,927.89
2024-02-09T02:39:40.342Z,927.86
2024-02-09T02:40:40.316Z,927.85
2024-02-09T02:41:40.458Z,927.85
2024-02-09T02:42:40.298Z,927.83
2024-02-09T02:43:40.280Z,927.81
2024-02-09T02:44:40.308Z,927.80
2024-02-09T02:45:40.279Z,927.80
2024-02-09T02:46:40.353Z,927.76
2024-02-09T02:47:40.346Z,927.75
2024-02-09T02:48:40.234Z,927.74
2024-02-09T02:49:40.295Z,927.73
2024-02-09T02:50:40.554Z,927.71
2024-02-09T02:51:40.299Z,927.73
2024-02-09T02:52:40.439Z,927.75
2024-02-09T02:53:40.175Z,927.75
2024-02-09T02:54:40.321Z,927.75
2024-02-09T02:55:40.145Z,927.75
2024-02-09T02:56:40.403Z,927.72
2024-02-09T02:57:40.126Z,927.70
2024-02-09T02:58:40.184Z,927.70
2024-02-09T02:59:40.083Z,927.64
2024-02-09T03:00:40.358Z,927.64
2024-02-09T03:01:40.190Z,927.60
2024-02-09T03:02:40.271Z,927.58
2024-02-09T03:03:40.077Z,927.56
2024-02-09T03:04:40.198Z,927.55
2024-02-09T03:05:40.345Z,927.54
2024-02-09T03:06:54.709Z,927.54
2024-02-09T03:09:40.151Z,927.53
2024-02-09T03:10:40.263Z,927.49
2024-02-09T03:11:40.114Z,927.49
2024-02-09T03:12:40.079Z,927.48
2024-02-09T03:13:39.889Z,927.48
2024-02-09T03:14:40.008Z,927.44
2024-02-09T03:15:40.054Z,927.39
2024-02-09T03:16:39.997Z,927.39
2024-02-09T03:17:40.115Z,927.37
2024-02-09T03:18:39.885Z,927.38
2024-02-09T03:19:40.021Z,927.39
2024-02-09T03:20:40.093Z,927.39
2024-02-09T03:21:39.982Z,927.38
2024-02-09T03:22:39.893Z,927.37
2024-02-09T03:23:39.899Z,927.36
2024-02-09T03:24:39.804Z,927.35
2024-02-09T03:25:39.962Z,927.39
2024-02-09T03:26:40.020Z,927.37
2024-02-09T03:27:39.826Z,927.35
2024-02-09T03:28:39.901Z,927.35
2024-02-09T03:29:39.852Z,927.33
2024-02-09T03:30:39.842Z,927.34
2024-02-09T03:31:40.045Z,927.33
2024-02-09T03:32:39.810Z,927.33
2024-02-09T03:33:39.876Z,927.35
2024-02-09T03:34:40.025Z,927.34
2024-02-09T03:35:39.821Z,927.35
2024-02-09T03:36:39.717Z,927.34
2024-02-09T03:37:39.768Z,927.35
2024-02-09T03:38:39.805Z,927.36
2024-02-09T03:39:39.814Z,927.37
2024-02-09T03:40:40.894Z,927.38
2024-02-09T03:41:39.806Z,927.38
2024-02-09T03:42:39.725Z,927.38
2024-02-09T03:43:39.657Z,927.37
2024-02-09T03:44:40.141Z,927.37
2024-02-09T03:45:39.752Z,927.35
2024-02-09T03:46:39.698Z,927.35
2024-02-09T03:47:39.620Z,927.34
2024-02-09T03:48:39.590Z,927.37
2024-02-09T03:49:39.632Z,927.39
2024-02-09T03:50:40.488Z,927.40
2024-02-09T03:51:39.591Z,927.44
2024-02-09T03:52:39.714Z,927.42
2024-02-09T03:53:39.514Z,927.42
2024-02-09T03:54:39.492Z,927.43
2024-02-09T03:55:39.795Z,927.42
2024-02-09T03:56:39.490Z,927.40
2024-02-09T03:57:39.532Z,927.39
2024-02-09T03:58:39.616Z,927.37
2024-02-09T03:59:39.442Z,927.35
2024-02-09T04:00:39.452Z,927.31
2024-02-09T04:01:39.498Z,927.29
2024-02-09T04:02:39.435Z,927.27
2024-02-09T04:03:39.690Z,927.26
2024-02-09T04:04:39.711Z,927.25
2024-02-09T04:05:39.574Z,927.24
2024-02-09T04:06:39.449Z,927.20
2024-02-09T04:07:39.422Z,927.17
2024-02-09T04:08:39.403Z,927.13
2024-02-09T04:09:52.848Z,927.10
2024-02-09T04:10:43.865Z,927.10
2024-02-09T04:11:39.314Z,927.09
2024-02-09T04:12:39.314Z,927.09
2024-02-09T04:13:40.191Z,927.09
2024-02-09T04:14:39.338Z,927.07
2024-02-09T04:15:39.328Z,927.05
2024-02-09T04:16:39.308Z,927.01
2024-02-09T04:17:39.283Z,926.99
2024-02-09T04:18:39.281Z,926.96
2024-02-09T04:19:39.305Z,926.95
2024-02-09T04:20:39.690Z,926.97
2024-02-09T04:21:39.262Z,926.97
2024-02-09T04:22:39.310Z,926.97
2024-02-09T04:23:39.185Z,926.96
2024-02-09T04:24:39.210Z,926.97
2024-02-09T04:25:39.233Z,926.97
2024-02-09T04:26:39.192Z,926.97
2024-02-09T04:27:39.205Z,926.97
2024-02-09T04:28:39.144Z,926.96
2024-02-09T04:29:39.224Z,926.94
2024-02-09T04:30:39.136Z,926.95
2024-02-09T04:31:39.156Z,926.92
2024-02-09T04:32:39.140Z,926.91
2024-02-09T04:33:39.197Z,926.89
2024-02-09T04:34:39.186Z,926.86
2024-02-09T04:35:39.040Z,926.87
2024-02-09T04:36:39.055Z,926.85
2024-02-09T04:37:39.181Z,926.85
2024-02-09T04:38:39.085Z,926.85
2024-02-09T04:39:39.998Z,926.85
2024-02-09T04:40:39.050Z,926.85
2024-02-09T04:41:38.995Z,926.85
2024-02-09T04:42:38.997Z,926.85
2024-02-09T04:43:39.073Z,926.85
2024-02-09T04:44:39.011Z,926.84
2024-02-09T04:45:39.228Z,926.84
2024-02-09T04:46:39.013Z,926.84
2024-02-09T04:47:39.004Z,926.83
2024-02-09T04:48:39.139Z,926.78
2024-02-09T04:49:38.956Z,926.77
2024-02-09T04:50:38.975Z,926.75
2024-02-09T04:51:38.981Z,926.74
2024-02-09T04:52:39.108Z,926.74
2024-02-09T04:53:38.999Z,926.75
2024-02-09T04:54:38.878Z,926.73
2024-02-09T04:55:38.991Z,926.69
2024-02-09T04:56:38.918Z,926.65
2024-02-09T04:57:38.823Z,926.63
2024-02-09T04:58:39.853Z,926.64
2024-02-09T04:59:39.024Z,926.65
2024-02-09T05:00:38.865Z,926.68
2024-02-09T05:01:38.878Z,926.70
2024-02-09T05:02:38.855Z,926.72
2024-02-09T05:03:38.823Z,926.75
2024-02-09T05:04:38.828Z,926.77
2024-02-09T05:05:38.873Z,926.78
2024-02-09T05:06:38.790Z,926.79
2024-02-09T05:07:38.852Z,926.78
2024-02-09T05:08:38.779Z,926.79
2024-02-09T05:09:38.700Z,926.77
2024-02-09T05:10:38.741Z,926.76
2024-02-09T05:11:38.693Z,926.75
2024-02-09T05:12:38.680Z,926.74
2024-02-09T05:13:38.933Z,926.76
2024-02-09T05:14:38.705Z,926.75
2024-02-09T05:15:38.613Z,926.77
2024-02-09T05:16:38.791Z,926.78
2024-02-09T05:17:38.759Z,926.76
2024-02-09T05:18:38.701Z,926.77
2024-02-09T05:19:38.621Z,926.78
2024-02-09T05:20:39.050Z,926.78
2024-02-09T05:21:38.569Z,926.78
2024-02-09T05:22:38.627Z,926.78
2024-02-09T05:23:38.588Z,926.78
2024-02-09T05:24:38.562Z,926.80
2024-02-09T05:25:38.704Z,926.82
2024-02-09T05:26:38.586Z,926.84
2024-02-09T05:27:38.530Z,926.84
2024-02-09T05:28:38.526Z,926.86
2024-02-09T05:29:38.524Z,926.87
2024-02-09T05:30:38.529Z,926.86
2024-02-09T05:31:38.684Z,926.89
2024-02-09T05:32:38.611Z,926.87
2024-02-09T05:33:38.514Z,926.88
2024-02-09T05:34:38.584Z,926.89
2024-02-09T05:35:38.434Z,926.89
2024-02-09T05:36:38.473Z,926.87
2024-02-09T05:37:38.555Z,926.86
2024-02-09T05:38:38.353Z,926.84
2024-02-09T05:39:38.351Z,926.84
2024-02-09T05:40:38.424Z,926.84
2024-02-09T05:41:38.363Z,926.85
2024-02-09T05:42:38.607Z,926.84
2024-02-09T05:43:38.434Z,926.86
2024-02-09T05:44:38.307Z,926.87
2024-02-09T05:45:38.504Z,926.87
2024-02-09T05:46:38.463Z,926.90
2024-02-09T05:47:38.330Z,926.92
2024-02-09T05:48:38.330Z,926.89
2024-02-09T05:49:38.297Z,926.90
2024-02-09T05:50:40.754Z,926.88
2024-02-09T05:51:38.236Z,926.88
2024-02-09T05:52:38.565Z,926.88
2024-02-09T05:53:38.221Z,926.88
2024-02-09T05:54:38.250Z,926.87
2024-02-09T05:55:38.281Z,926.85
2024-02-09T05:56:38.285Z,926.87
2024-02-09T05:57:38.393Z,926.87
2024-02-09T05:58:38.430Z,926.88
2024-02-09T05:59:38.162Z,926.89
2024-02-09T06:00:38.353Z,926.89
2024-02-09T06:01:38.245Z,926.88
2024-02-09T06:02:38.436Z,926.90
2024-02-09T06:03:38.203Z,926.89
2024-02-09T06:04:38.257Z,926.88
2024-02-09T06:05:38.099Z,926.88
2024-02-09T06:06:38.247Z,926.87
2024-02-09T06:07:38.148Z,926.87
2024-02-09T06:08:38.009Z,926.88
2024-02-09T06:09:38.731Z,926.89
2024-02-09T06:10:38.142Z,926.89
2024-02-09T06:11:38.080Z,926.90
2024-02-09T06:12:39.265Z,926.89
2024-02-09T06:13:38.117Z,926.89
2024-02-09T06:14:38.082Z,926.89
2024-02-09T06:15:37.992Z,926.87
2024-02-09T06:16:38.097Z,926.87
2024-02-09T06:17:37.981Z,926.85
2024-02-09T06:18:38.028Z,926.86
2024-02-09T06:19:38.223Z,926.82
2024-02-09T06:20:38.009Z,926.80
2024-02-09T06:21:38.039Z,926.78
2024-02-09T06:22:37.933Z,926.79
2024-02-09T06:23:37.949Z,926.77
2024-02-09T06:24:37.973Z,926.76
2024-02-09T06:25:37.962Z,926.76
2024-02-09T06:26:37.974Z,926.78
2024-02-09T06:27:38.035Z,926.77
2024-02-09T06:28:37.897Z,926.77
2024-02-09T06:29:37.888Z,926.77
2024-02-09T06:30:37.861Z,926.76
2024-02-09T06:31:37.904Z,926.75
2024-02-09T06:32:38.622Z,926.76
2024-02-09T06:33:37.936Z,926.77
2024-02-09T06:34:37.943Z,926.76
2024-02-09T06:35:37.882Z,926.79
2024-02-09T06:36:37.918Z,926.80
2024-02-09T06:37:37.854Z,926.80
2024-02-09T06:38:37.828Z,926.79
2024-02-09T06:39:38.745Z,926.78
2024-02-09T06:40:37.822Z,926.79
2024-02-09T06:41:37.720Z,926.78
2024-02-09T06:42:37.746Z,926.78
2024-02-09T06:43:37.791Z,926.80
2024-02-09T06:44:37.763Z,926.81
2024-02-09T06:45:37.868Z,926.82
2024-02-09T06:46:37.705Z,926.81
2024-02-09T06:47:37.708Z,926.82
2024-02-09T06:48:37.865Z,926.81
2024-02-09T06:49:37.699Z,926.79
2024-02-09T06:50:37.693Z,926.78
2024-02-09T06:51:37.608Z,926.81
2024-02-09T06:52:37.695Z,926.77
2024-02-09T06:53:37.612Z,926.78
2024-02-09T06:54:37.735Z,926.75
2024-02-09T06:55:38.586Z,926.74
2024-02-09T06:56:37.737Z,926.72
2024-02-09T06:57:37.533Z,926.74
2024-02-09T06:58:37.733Z,926.74
2024-02-09T06:59:37.533Z,926.77
2024-02-09T07:00:37.611Z,926.77
2024-02-09T07:01:37.664Z,926.79
2024-02-09T07:02:37.568Z,926.80
2024-02-09T07:03:37.524Z,926.81
2024-02-09T07:04:37.884Z,926.82
2024-02-09T07:05:37.509Z,926.82
2024-02-09T07:06:37.603Z,926.84
2024-02-09T07:07:37.448Z,926.87
2024-02-09T07:08:37.401Z,926.88
2024-02-09T07:09:37.435Z,926.90
2024-02-09T07:10:37.495Z,926.94
2024-02-09T07:11:37.442Z,926.94
2024-02-09T07:12:37.416Z,926.95
2024-02-09T07:13:37.447Z,926.95
2024-02-09T07:14:37.448Z,926.93
2024-02-09T07:15:37.354Z,926.90
2024-02-09T07:16:37.380Z,926.86
2024-02-09T07:17:37.606Z,926.82
2024-02-09T07:18:37.355Z,926.81
2024-02-09T07:19:37.512Z,926.78
2024-02-09T07:20:37.406Z,926.79
2024-02-09T07:21:37.297Z,926.76
2024-02-09T07:22:37.312Z,926.77
2024-02-09T07:23:37.299Z,926.78
2024-02-09T07:24:37.320Z,926.79
2024-02-09T07:25:37.350Z,926.80
2024-02-09T07:26:37.230Z,926.80
2024-02-09T07:27:37.242Z,926.81
2024-02-09T07:28:37.323Z,926.84
2024-02-09T07:29:37.256Z,926.82
2024-02-09T07:30:37.553Z,926.87
2024-02-09T07:31:37.801Z,926.86
2024-02-09T07:32:37.422Z,926.88
2024-02-09T07:33:37.792Z,926.90
2024-02-09T07:34:38.126Z,926.93
2024-02-09T07:35:38.518Z,926.95
2024-02-09T07:36:46.917Z,927.01
2024-02-09T07:38:18.976Z,926.96
2024-02-09T07:40:35.517Z,926.94
2024-02-09T07:40:41.865Z,926.95
2024-02-09T07:41:41.722Z,926.95
2024-02-09T07:43:16.032Z,926.95
2024-02-09T07:44:06.009Z,926.97
2024-02-09T07:44:56.177Z,926.94
2024-02-09T07:45:41.648Z,926.96
2024-02-09T07:46:41.701Z,926.95
2024-02-09T07:47:41.731Z,926.95
2024-02-09T07:48:41.660Z,926.91
2024-02-09T07:49:41.693Z,926.92
2024-02-09T07:50:41.573Z,926.95
2024-02-09T07:51:41.622Z,926.98
2024-02-09T07:52:41.710Z,926.98
2024-02-09T07:53:41.604Z,927.01
2024-02-09T07:54:41.695Z,927.01
2024-02-09T07:55:41.772Z,927.03
2024-02-09T07:56:41.516Z,927.03
2024-02-09T07:57:41.532Z,927.05
2024-02-09T07:58:41.575Z,927.07
2024-02-09T07:59:41.613Z,927.04
2024-02-09T08:00:41.515Z,927.09
2024-02-09T08:01:41.702Z,927.10
2024-02-09T08:02:41.632Z,927.09
2024-02-09T08:03:41.483Z,927.11
2024-02-09T08:04:41.596Z,927.14
2024-02-09T08:05:41.453Z,927.17
2024-02-09T08:06:41.552Z,927.14
2024-02-09T08:07:41.504Z,927.16
2024-02-09T08:08:41.389Z,927.16
2024-02-09T08:09:41.377Z,927.13
2024-02-09T08:10:41.431Z,927.12
2024-02-09T08:11:41.407Z,927.14
2024-02-09T08:12:41.410Z,927.14
2024-02-09T08:13:41.426Z,927.13
2024-02-09T08:14:41.439Z,927.13
2024-02-09T08:15:41.452Z,927.13
2024-02-09T08:16:41.479Z,927.16
2024-02-09T08:17:41.387Z,927.17
2024-02-09T08:18:41.353Z,927.20
2024-02-09T08:19:41.500Z,927.20
2024-02-09T08:20:41.400Z,927.20
2024-02-09T08:21:41.305Z,927.20
2024-02-09T08:22:41.399Z,927.18
2024-02-09T08:23:41.288Z,927.20
2024-02-09T08:24:41.278Z,927.22
2024-02-09T08:25:41.282Z,927.21
2024-02-09T08:26:49.470Z,927.23
2024-02-09T08:27:41.192Z,927.23
2024-02-09T08:28:41.301Z,927.27
2024-02-09T08:29:42.713Z,927.28
2024-02-09T08:30:41.272Z,927.32
2024-02-09T08:31:41.250Z,927.34
2024-02-09T08:32:41.319Z,927.36
2024-02-09T08:33:41.291Z,927.36
2024-02-09T08:34:41.248Z,927.32
2024-02-09T08:35:41.255Z,927.33
2024-02-09T08:36:41.195Z,927.34
2024-02-09T08:37:41.357Z,927.34
2024-02-09T08:38:41.117Z,927.31
2024-02-09T08:39:41.310Z,927.32
2024-02-09T08:40:41.270Z,927.34
2024-02-09T08:41:41.223Z,927.36
2024-02-09T08:42:41.148Z,927.38
2024-02-09T08:43:41.172Z,927.36
2024-02-09T08:44:41.099Z,927.35
2024-02-09T08:45:41.060Z,927.33
2024-02-09T08:46:41.290Z,927.30
2024-02-09T08:47:41.000Z,927.27
2024-02-09T08:48:40.956Z,927.26
2024-02-09T08:49:41.248Z,927.24
2024-02-09T08:50:41.058Z,927.23
2024-02-09T08:51:41.096Z,927.20
2024-02-09T08:52:40.998Z,927.22
2024-02-09T08:53:42.074Z,927.24
2024-02-09T08:54:40.980Z,927.26
2024-02-09T08:55:42.052Z,927.29
2024-02-09T08:56:40.994Z,927.30
2024-02-09T08:57:41.026Z,927.31
2024-02-09T08:58:41.027Z,927.33
2024-02-09T08:59:40.842Z,927.35
2024-02-09T09:00:44.748Z,927.37
2024-02-09T09:01:41.008Z,927.41
2024-02-09T09:02:40.831Z,927.45
2024-02-09T09:03:41.286Z,927.46
2024-02-09T09:04:41.044Z,927.49
2024-02-09T09:05:40.799Z,927.48
2024-02-09T09:06:40.893Z,927.47
2024-02-09T09:07:40.860Z,927.48
2024-02-09T09:08:40.793Z,927.50
2024-02-09T09:09:40.770Z,927.53
2024-02-09T09:10:40.785Z,927.54
2024-02-09T09:11:40.940Z,927.56
2024-02-09T09:12:40.620Z,927.57
2024-02-09T09:13:40.900Z,927.58
2024-02-09T09:14:40.715Z,927.58
2024-02-09T09:15:40.714Z,927.59
2024-02-09T09:16:40.875Z,927.58
2024-02-09T09:17:40.856Z,927.57
2024-02-09T09:18:40.895Z,927.55
2024-02-09T09:19:40.845Z,927.54
2024-02-09T09:20:40.728Z,927.55
2024-02-09T09:21:40.764Z,927.54
2024-02-09T09:22:40.749Z,927.55
2024-02-09T09:23:40.582Z,927.55
2024-02-09T09:24:41.154Z,927.55
2024-02-09T09:25:41.296Z,927.55
2024-02-09T09:26:40.695Z,927.55
2024-02-09T09:27:40.633Z,927.55
2024-02-09T09:28:40.618Z,927.55
2024-02-09T09:29:40.632Z,927.54
2024-02-09T09:30:40.544Z,927.54
2024-02-09T09:31:40.681Z,927.54
2024-02-09T09:32:40.529Z,927.55
2024-02-09T09:33:40.489Z,927.56
2024-02-09T09:34:40.495Z,927.57
2024-02-09T09:35:40.494Z,927.58
2024-02-09T09:36:40.514Z,927.57
2024-02-09T09:37:40.568Z,927.57
2024-02-09T09:38:40.435Z,927.60
2024-02-09T09:39:40.468Z,927.62
2024-02-09T09:40:40.505Z,927.65
2024-02-09T09:41:40.510Z,927.68
2024-02-09T09:42:40.352Z,927.67
2024-02-09T09:43:40.545Z,927.69
2024-02-09T09:44:40.322Z,927.70
2024-02-09T09:45:40.431Z,927.70
2024-02-09T09:46:40.407Z,927.70
2024-02-09T09:47:40.311Z,927.71
2024-02-09T09:48:40.517Z,927.73
2024-02-09T09:49:40.287Z,927.74
2024-02-09T09:50:40.261Z,927.78
2024-02-09T09:51:40.264Z,927.81
2024-02-09T09:52:40.304Z,927.86
2024-02-09T09:53:40.276Z,927.89
2024-02-09T09:54:40.330Z,927.92
2024-02-09T09:55:40.273Z,927.95
2024-02-09T09:56:40.197Z,927.94
2024-02-09T09:57:40.200Z,927.93
2024-02-09T09:58:40.266Z,927.93
2024-02-09T09:59:40.169Z,927.93
2024-02-09T10:00:40.197Z,927.95
2024-02-09T10:01:40.226Z,927.98
2024-02-09T10:02:40.172Z,928.01
2024-02-09T10:03:40.329Z,928.02
2024-02-09T10:04:40.364Z,928.06
2024-02-09T10:05:40.398Z,928.08
2024-02-09T10:06:40.226Z,928.09
2024-02-09T10:07:40.284Z,928.09
2024-02-09T10:08:40.257Z,928.09
2024-02-09T10:09:40.030Z,928.09
2024-02-09T10:10:40.099Z,928.08
2024-02-09T10:11:40.376Z,928.08
2024-02-09T10:12:40.205Z,928.08
2024-02-09T10:13:40.030Z,928.08
2024-02-09T10:14:40.947Z,928.07
2024-02-09T10:15:40.155Z,928.05
2024-02-09T10:16:40.959Z,928.03
2024-02-09T10:17:40.167Z,928.02
2024-02-09T10:18:40.260Z,928.02
2024-02-09T10:19:40.152Z,928.02
2024-02-09T10:20:40.513Z,928.02
2024-02-09T10:21:44.270Z,928.01
2024-02-09T10:22:39.933Z,928.01
2024-02-09T10:23:40.540Z,928.01
2024-02-09T10:24:40.280Z,928.00
2024-02-09T10:25:39.930Z,928.00
2024-02-09T10:26:40.342Z,928.00
2024-02-09T10:27:39.948Z,928.02
2024-02-09T10:28:40.043Z,928.03
2024-02-09T10:29:40.019Z,928.04
2024-02-09T10:30:40.240Z,928.05
2024-02-09T10:31:40.044Z,928.07
2024-02-09T10:32:40.435Z,928.08
2024-02-09T10:33:40.107Z,928.10
2024-02-09T10:34:40.494Z,928.11
2024-02-09T10:35:41.558Z,928.10
2024-02-09T10:36:40.033Z,928.11
2024-02-09T10:37:40.274Z,928.12
2024-02-09T10:38:41.347Z,928.10
2024-02-09T10:39:40.015Z,928.09
2024-02-09T10:40:39.861Z,928.10
2024-02-09T10:41:39.744Z,928.10
2024-02-09T10:42:39.851Z,928.10
2024-02-09T10:43:39.748Z,928.12
2024-02-09T10:44:40.482Z,928.13
2024-02-09T10:45:39.667Z,928.12
2024-02-09T10:46:39.909Z,928.11
2024-02-09T10:47:40.637Z,928.11
2024-02-09T10:48:40.043Z,928.12
2024-02-09T10:49:39.848Z,928.11
2024-02-09T10:50:39.790Z,928.11
2024-02-09T10:51:39.797Z,928.13
2024-02-09T10:52:40.153Z,928.15
2024-02-09T10:53:39.852Z,928.16
2024-02-09T10:54:39.651Z,928.16
2024-02-09T10:55:40.241Z,928.16
2024-02-09T10:56:39.938Z,928.16
2024-02-09T10:57:39.625Z,928.16
2024-02-09T10:58:39.903Z,928.17
2024-02-09T10:59:39.651Z,928.16
2024-02-09T11:00:39.697Z,928.15
2024-02-09T11:01:39.665Z,928.16
2024-02-09T11:02:39.811Z,928.17
2024-02-09T11:03:39.627Z,928.18
2024-02-09T11:04:39.571Z,928.18
2024-02-09T11:05:39.820Z,928.18
2024-02-09T11:06:39.712Z,928.18
2024-02-09T11:07:39.584Z,928.18
2024-02-09T11:08:44.471Z,928.19
2024-02-09T11:09:39.404Z,928.18
2024-02-09T11:10:40.582Z,928.18
2024-02-09T11:11:39.514Z,928.19
2024-02-09T11:12:39.482Z,928.20
2024-02-09T11:13:40.659Z,928.21
2024-02-09T11:14:39.485Z,928.21
2024-02-09T11:15:39.547Z,928.22
2024-02-09T11:16:39.628Z,928.22
2024-02-09T11:17:39.407Z,928.24
2024-02-09T11:18:39.690Z,928.22
2024-02-09T11:19:39.556Z,928.23
2024-02-09T11:20:40.453Z,928.21
2024-02-09T11:21:42.546Z,928.24
2024-02-09T11:22:39.659Z,928.25
2024-02-09T11:23:40.445Z,928.21
2024-02-09T11:24:39.391Z,928.25
2024-02-09T11:25:39.797Z,928.23
2024-02-09T11:26:39.579Z,928.24
2024-02-09T11:27:44.020Z,928.24
2024-02-09T11:28:39.513Z,928.25
2024-02-09T11:29:40.101Z,928.26
2024-02-09T11:30:39.364Z,928.25
2024-02-09T11:31:39.391Z,928.24
2024-02-09T11:32:39.277Z,928.23
2024-02-09T11:33:40.304Z,928.24
2024-02-09T11:34:39.463Z,928.21
2024-02-09T11:35:39.195Z,928.20
2024-02-09T11:36:39.222Z,928.18
2024-02-09T11:37:39.247Z,928.17
2024-02-09T11:38:39.343Z,928.18
2024-02-09T11:39:39.144Z,928.17
2024-02-09T11:40:39.492Z,928.15
2024-02-09T11:41:39.463Z,928.15
2024-02-09T11:42:39.369Z,928.14
2024-02-09T11:43:39.243Z,928.14
2024-02-09T11:44:39.573Z,928.12
2024-02-09T11:45:40.208Z,928.11
2024-02-09T11:46:39.659Z,928.11
2024-02-09T11:47:39.643Z,928.11
2024-02-09T11:48:39.516Z,928.11
2024-02-09T11:49:40.059Z,928.12
2024-02-09T11:50:39.238Z,928.14
2024-02-09T11:51:39.141Z,928.14
2024-02-09T11:52:49.375Z,928.15
2024-02-09T11:53:39.133Z,928.15
2024-02-09T11:54:39.050Z,928.19
2024-02-09T11:55:39.280Z,928.16
2024-02-09T11:56:39.263Z,928.15
2024-02-09T11:57:39.064Z,928.14
2024-02-09T11:58:39.849Z,928.17
2024-02-09T11:59:38.955Z,928.17
2024-02-09T12:00:39.811Z,928.18
2024-02-09T12:01:39.023Z,928.23
2024-02-09T12:02:39.079Z,928.24
2024-02-09T12:03:39.066Z,928.24
2024-02-09T12:04:39.355Z,928.23
2024-02-09T12:05:40.873Z,928.22
2024-02-09T12:06:39.874Z,928.22
2024-02-09T12:07:39.083Z,928.21
2024-02-09T12:08:39.557Z,928.22
2024-02-09T12:09:52.041Z,928.22
2024-02-09T12:10:39.569Z,928.21
2024-02-09T12:11:38.755Z,928.20
2024-02-09T12:12:38.836Z,928.18
2024-02-09T12:13:38.913Z,928.19
2024-02-09T12:14:38.864Z,928.21
2024-02-09T12:15:39.072Z,928.19
2024-02-09T12:16:39.029Z,928.16
2024-02-09T12:17:38.813Z,928.15
2024-02-09T12:18:38.807Z,928.14
2024-02-09T12:19:38.799Z,928.14
2024-02-09T12:20:38.873Z,928.13
2024-02-09T12:21:38.870Z,928.13
2024-02-09T12:22:38.841Z,928.13
2024-02-09T12:23:38.615Z,928.13
2024-02-09T12:24:38.621Z,928.10
2024-02-09T12:25:39.843Z,928.09
2024-02-09T12:26:38.650Z,928.09
2024-02-09T12:27:38.813Z,928.08
2024-02-09T12:28:39.332Z,928.05
2024-02-09T12:29:38.757Z,928.06
2024-02-09T12:30:38.650Z,928.06
2024-02-09T12:31:39.193Z,928.04